Leo Voyager — C6AB7 — position and weather

sailwx.info

Track history (hours):
 
Tides and Currents Weather Stations Pressure Air Temp Water Temp Dewpoint Dewpoint Depression Visibility Wind Speed Wind Dir Waves Ship Positions

Leo Voyager

Last reported at 2018-Aug-07 00:00 UTC. Time now 2018-Aug-17 11:43 UTC.
Position N 13°06' W 173°48'.
Warning: this ship's position is 10 days out of date.

Length 333 m; draft 11.6 m.

Type: Tanker. MMSI: 311000012.

Wind from 080 at 12 knots

Barometer 1022.0 mb
Air temperature 27.0 ° C
Visibility: greater than 10.8 NM
Dewpoint 22.6 ° C
Water temperature 29.0 ° C

Date/timePositionNaut miles runAvg speedWind from/ knotsBaromVisibWave heightAir tempDewpointWater temp
2018-Aug-07 00:00N 13°06' W 173°48'34514.4 080 / 121022.010.8 27.022.629.0
2018-Aug-06 00:00N 13°18' W 167°54'17214.3 090 / 181023.010.8 27.024.129.0
2018-Aug-05 12:00N 13°48' W 165°00'   090 / 201024.010.8 26.021.529.0
2018-Jul-30 09:05N 26°52' W 130°49'114.0
2018-Jul-30 09:00N 26°53' W 130°48'1914.1
2018-Jul-30 07:38N 26°60' W 130°28'214.1
2018-Jul-30 07:30N 27°00' W 130°26'714.1
2018-Jul-30 07:00N 27°03' W 130°19'1114.1
2018-Jul-30 06:14N 27°07' W 130°08'314.4
2018-Jul-30 06:00N 27°08' W 130°04'814.2
2018-Jul-30 05:26N 27°12' W 129°56'614.1
2018-Jul-30 04:59N 27°14' W 129°49'713.9
2018-Jul-30 04:30N 27°17' W 129°42'1013.9
2018-Jul-30 03:45N 27°21' W 129°31'814.0
2018-Jul-30 03:10N 27°24' W 129°23'313.9
2018-Jul-30 02:59N 27°25' W 129°20'1014.0
2018-Jul-30 02:14N 27°29' W 129°09'314.1
2018-Jul-30 02:00N 27°30' W 129°06'813.9
2018-Jul-30 01:26N 27°33' W 128°58'614.1
2018-Jul-30 01:00N 27°35' W 128°51'814.0
2018-Jul-30 00:28N 27°38' W 128°43'714.1
2018-Jul-30 00:00N 27°40' W 128°36'814.2
2018-Jul-29 23:24N 27°43' W 128°28'714.3
2018-Jul-29 22:55N 27°46' W 128°20'614.2
2018-Jul-29 22:30N 27°48' W 128°14'814.0
2018-Jul-29 21:57N 27°51' W 128°06'1214.1
2018-Jul-29 21:06N 27°56' W 127°54'614.1
2018-Jul-29 20:39N 27°58' W 127°47'314.1
2018-Jul-29 20:25N 27°60' W 127°44'714.2
2018-Jul-29 19:55N 28°02' W 127°36'1014.1
2018-Jul-29 19:13N 28°06' W 127°26'314.2
2018-Jul-29 19:00N 28°07' W 127°23'714.0
2018-Jul-29 18:30N 28°10' W 127°15'1414.0
2018-Jul-29 17:28N 28°15' W 126°60'713.8
2018-Jul-29 16:58N 28°18' W 126°53'713.9
2018-Jul-29 16:28N 28°20' W 126°45'614.0
2018-Jul-29 16:01N 28°23' W 126°39'813.9
2018-Jul-29 15:28N 28°26' W 126°31'613.8
2018-Jul-29 15:00N 28°28' W 126°24'714.0
2018-Jul-29 14:30N 28°31' W 126°17'1414.2
2018-Jul-29 13:30N 28°36' W 126°02'714.3
2018-Jul-29 13:00N 28°39' W 125°54'714.2
2018-Jul-29 12:30N 28°41' W 125°47'714.3
2018-Jul-29 12:00N 28°44' W 125°39'714.3
2018-Jul-29 11:30N 28°47' W 125°31'714.3
2018-Jul-29 11:00N 28°49' W 125°24'814.2
2018-Jul-29 10:29N 28°52' W 125°16'714.1
2018-Jul-29 09:58N 28°55' W 125°08'714.0
2018-Jul-29 09:30N 28°57' W 125°02'714.1
2018-Jul-29 09:00N 29°00' W 124°54'714.1
2018-Jul-29 08:29N 29°03' W 124°46'713.9
2018-Jul-29 08:00N 29°05' W 124°39'813.8
2018-Jul-29 07:24N 29°08' W 124°30'613.9
2018-Jul-29 07:01N 29°10' W 124°24'714.2
2018-Jul-29 06:30N 29°12' W 124°17'714.2
2018-Jul-29 06:00N 29°15' W 124°09'714.2
2018-Jul-29 05:30N 29°17' W 124°01'714.4
2018-Jul-29 05:01N 29°20' W 123°54'714.2
2018-Jul-29 04:30N 29°22' W 123°46'714.3
2018-Jul-29 04:01N 29°25' W 123°38'714.5
2018-Jul-29 03:30N 29°27' W 123°30'714.4
2018-Jul-29 03:01N 29°30' W 123°23'714.3
2018-Jul-29 02:30N 29°32' W 123°15'714.1
2018-Jul-29 02:01N 29°35' W 123°07'713.9
2018-Jul-29 01:31N 29°37' W 122°60'713.9
2018-Jul-29 01:00N 29°39' W 122°52'713.7
2018-Jul-29 00:30N 29°42' W 122°45'713.7
2018-Jul-29 00:00N 29°44' W 122°37'713.6
2018-Jul-28 23:30N 29°46' W 122°30'713.7
2018-Jul-28 23:00N 29°49' W 122°23'713.6
2018-Jul-28 22:30N 29°51' W 122°15'713.9
2018-Jul-28 22:00N 29°54' W 122°08'713.9
2018-Jul-28 21:30N 29°56' W 122°00'713.7
2018-Jul-28 21:00N 29°58' W 121°53'713.8
2018-Jul-28 20:30N 30°01' W 121°45'713.6
2018-Jul-28 20:00N 30°03' W 121°38'713.5
2018-Jul-28 19:30N 30°05' W 121°31'713.6
2018-Jul-28 19:00N 30°08' W 121°23'713.8
2018-Jul-28 18:30N 30°10' W 121°16'713.6
2018-Jul-28 18:00N 30°13' W 121°09'713.7
2018-Jul-28 17:30N 30°15' W 121°01'713.6
2018-Jul-28 16:58N 30°18' W 120°53'613.5
2018-Jul-28 16:30N 30°20' W 120°47'713.6
2018-Jul-28 15:57N 30°23' W 120°38'613.6
2018-Jul-28 15:30N 30°25' W 120°32'813.4
2018-Jul-28 14:57N 30°28' W 120°24'613.3
2018-Jul-28 14:30N 30°30' W 120°17'713.2
2018-Jul-28 14:00N 30°32' W 120°10'713.4
2018-Jul-28 13:30N 30°34' W 120°03'713.2
2018-Jul-28 13:00N 30°37' W 119°56'713.3
2018-Jul-28 12:30N 30°39' W 119°49'713.3
2018-Jul-28 12:00N 30°41' W 119°41'713.3
2018-Jul-28 11:30N 30°43' W 119°34'713.2
2018-Jul-28 10:59N 30°46' W 119°26'613.2
2018-Jul-28 10:30N 30°48' W 119°19'713.2
2018-Jul-28 10:00N 30°50' W 119°12'713.1
2018-Jul-28 09:30N 30°53' W 119°05'713.2
2018-Jul-28 09:00N 30°55' W 118°58'713.4
2018-Jul-28 08:30N 30°58' W 118°51'713.4
2018-Jul-28 08:00N 31°00' W 118°43'713.3
2018-Jul-28 07:30N 31°03' W 118°36'612.9
2018-Jul-28 07:00N 31°06' W 118°30'713.3
2018-Jul-28 06:30N 31°13' W 118°27'713.5
2018-Jul-28 06:00N 31°19' W 118°24'713.6
2018-Jul-28 05:30N 31°25' W 118°21'713.4
2018-Jul-28 05:00N 31°31' W 118°18'713.5
2018-Jul-28 04:30N 31°37' W 118°15'713.4
2018-Jul-28 04:00N 31°44' W 118°12'713.4
2018-Jul-28 03:30N 31°50' W 118°09'713.5
2018-Jul-28 03:00N 31°56' W 118°06'713.4
2018-Jul-28 02:30N 32°02' W 118°03'713.5
2018-Jul-28 02:00N 32°09' W 117°60'713.4
2018-Jul-28 01:30N 32°15' W 117°57'612.4
2018-Jul-28 01:00N 32°20' W 117°54'510.6
2018-Jul-28 00:30N 32°25' W 117°52'510.7
2018-Jul-28 00:00N 32°30' W 117°49'  
Track history (hours):
 
Tides and Currents Weather Stations Pressure Air Temp Water Temp Dewpoint Dewpoint Depression Visibility Wind Speed Wind Dir Waves Ship Positions

Leo Voyager

Last reported at 2018-Aug-07 00:00 UTC. Time now 2018-Aug-17 11:43 UTC.
Position N 13°06' W 173°48'.
Warning: this ship's position is 10 days out of date.

Length 333 m; draft 11.6 m.

Type: Tanker. MMSI: 311000012.

Wind from 080 at 12 knots

Barometer 1022.0 mb
Air temperature 27.0 ° C
Visibility: greater than 10.8 NM
Dewpoint 22.6 ° C
Water temperature 29.0 ° C

Date/timePositionNaut miles runAvg speedWind from/ knotsBaromVisibWave heightAir tempDewpointWater temp
2018-Aug-07 00:00N 13°06' W 173°48'34514.4 080 / 121022.010.8 27.022.629.0
2018-Aug-06 00:00N 13°18' W 167°54'17214.3 090 / 181023.010.8 27.024.129.0
2018-Aug-05 12:00N 13°48' W 165°00'   090 / 201024.010.8 26.021.529.0
2018-Jul-30 09:05N 26°52' W 130°49'114.0
2018-Jul-30 09:00N 26°53' W 130°48'1914.1
2018-Jul-30 07:38N 26°60' W 130°28'214.1
2018-Jul-30 07:30N 27°00' W 130°26'714.1
2018-Jul-30 07:00N 27°03' W 130°19'1114.1
2018-Jul-30 06:14N 27°07' W 130°08'314.4
2018-Jul-30 06:00N 27°08' W 130°04'814.2
2018-Jul-30 05:26N 27°12' W 129°56'614.1
2018-Jul-30 04:59N 27°14' W 129°49'713.9
2018-Jul-30 04:30N 27°17' W 129°42'1013.9
2018-Jul-30 03:45N 27°21' W 129°31'814.0
2018-Jul-30 03:10N 27°24' W 129°23'313.9
2018-Jul-30 02:59N 27°25' W 129°20'1014.0
2018-Jul-30 02:14N 27°29' W 129°09'314.1
2018-Jul-30 02:00N 27°30' W 129°06'813.9
2018-Jul-30 01:26N 27°33' W 128°58'614.1
2018-Jul-30 01:00N 27°35' W 128°51'814.0
2018-Jul-30 00:28N 27°38' W 128°43'714.1
2018-Jul-30 00:00N 27°40' W 128°36'814.2
2018-Jul-29 23:24N 27°43' W 128°28'714.3
2018-Jul-29 22:55N 27°46' W 128°20'614.2
2018-Jul-29 22:30N 27°48' W 128°14'814.0
2018-Jul-29 21:57N 27°51' W 128°06'1214.1
2018-Jul-29 21:06N 27°56' W 127°54'614.1
2018-Jul-29 20:39N 27°58' W 127°47'314.1
2018-Jul-29 20:25N 27°60' W 127°44'714.2
2018-Jul-29 19:55N 28°02' W 127°36'1014.1
2018-Jul-29 19:13N 28°06' W 127°26'314.2
2018-Jul-29 19:00N 28°07' W 127°23'714.0
2018-Jul-29 18:30N 28°10' W 127°15'1414.0
2018-Jul-29 17:28N 28°15' W 126°60'713.8
2018-Jul-29 16:58N 28°18' W 126°53'713.9
2018-Jul-29 16:28N 28°20' W 126°45'614.0
2018-Jul-29 16:01N 28°23' W 126°39'813.9
2018-Jul-29 15:28N 28°26' W 126°31'613.8
2018-Jul-29 15:00N 28°28' W 126°24'714.0
2018-Jul-29 14:30N 28°31' W 126°17'1414.2
2018-Jul-29 13:30N 28°36' W 126°02'714.3
2018-Jul-29 13:00N 28°39' W 125°54'714.2
2018-Jul-29 12:30N 28°41' W 125°47'714.3
2018-Jul-29 12:00N 28°44' W 125°39'714.3
2018-Jul-29 11:30N 28°47' W 125°31'714.3
2018-Jul-29 11:00N 28°49' W 125°24'814.2
2018-Jul-29 10:29N 28°52' W 125°16'714.1
2018-Jul-29 09:58N 28°55' W 125°08'714.0
2018-Jul-29 09:30N 28°57' W 125°02'714.1
2018-Jul-29 09:00N 29°00' W 124°54'714.1
2018-Jul-29 08:29N 29°03' W 124°46'713.9
2018-Jul-29 08:00N 29°05' W 124°39'813.8
2018-Jul-29 07:24N 29°08' W 124°30'613.9
2018-Jul-29 07:01N 29°10' W 124°24'714.2
2018-Jul-29 06:30N 29°12' W 124°17'714.2
2018-Jul-29 06:00N 29°15' W 124°09'714.2
2018-Jul-29 05:30N 29°17' W 124°01'714.4
2018-Jul-29 05:01N 29°20' W 123°54'714.2
2018-Jul-29 04:30N 29°22' W 123°46'714.3
2018-Jul-29 04:01N 29°25' W 123°38'714.5
2018-Jul-29 03:30N 29°27' W 123°30'714.4
2018-Jul-29 03:01N 29°30' W 123°23'714.3
2018-Jul-29 02:30N 29°32' W 123°15'714.1
2018-Jul-29 02:01N 29°35' W 123°07'713.9
2018-Jul-29 01:31N 29°37' W 122°60'713.9
2018-Jul-29 01:00N 29°39' W 122°52'713.7
2018-Jul-29 00:30N 29°42' W 122°45'713.7
2018-Jul-29 00:00N 29°44' W 122°37'713.6
2018-Jul-28 23:30N 29°46' W 122°30'713.7
2018-Jul-28 23:00N 29°49' W 122°23'713.6
2018-Jul-28 22:30N 29°51' W 122°15'713.9
2018-Jul-28 22:00N 29°54' W 122°08'713.9
2018-Jul-28 21:30N 29°56' W 122°00'713.7
2018-Jul-28 21:00N 29°58' W 121°53'713.8
2018-Jul-28 20:30N 30°01' W 121°45'713.6
2018-Jul-28 20:00N 30°03' W 121°38'713.5
2018-Jul-28 19:30N 30°05' W 121°31'713.6
2018-Jul-28 19:00N 30°08' W 121°23'713.8
2018-Jul-28 18:30N 30°10' W 121°16'713.6
2018-Jul-28 18:00N 30°13' W 121°09'713.7
2018-Jul-28 17:30N 30°15' W 121°01'713.6
2018-Jul-28 16:58N 30°18' W 120°53'613.5
2018-Jul-28 16:30N 30°20' W 120°47'713.6
2018-Jul-28 15:57N 30°23' W 120°38'613.6
2018-Jul-28 15:30N 30°25' W 120°32'813.4
2018-Jul-28 14:57N 30°28' W 120°24'613.3
2018-Jul-28 14:30N 30°30' W 120°17'713.2
2018-Jul-28 14:00N 30°32' W 120°10'713.4
2018-Jul-28 13:30N 30°34' W 120°03'713.2
2018-Jul-28 13:00N 30°37' W 119°56'713.3
2018-Jul-28 12:30N 30°39' W 119°49'713.3
2018-Jul-28 12:00N 30°41' W 119°41'713.3
2018-Jul-28 11:30N 30°43' W 119°34'713.2
2018-Jul-28 10:59N 30°46' W 119°26'613.2
2018-Jul-28 10:30N 30°48' W 119°19'713.2
2018-Jul-28 10:00N 30°50' W 119°12'713.1
2018-Jul-28 09:30N 30°53' W 119°05'713.2
2018-Jul-28 09:00N 30°55' W 118°58'713.4
2018-Jul-28 08:30N 30°58' W 118°51'713.4
2018-Jul-28 08:00N 31°00' W 118°43'713.3
2018-Jul-28 07:30N 31°03' W 118°36'612.9
2018-Jul-28 07:00N 31°06' W 118°30'713.3
2018-Jul-28 06:30N 31°13' W 118°27'713.5
2018-Jul-28 06:00N 31°19' W 118°24'713.6
2018-Jul-28 05:30N 31°25' W 118°21'713.4
2018-Jul-28 05:00N 31°31' W 118°18'713.5
2018-Jul-28 04:30N 31°37' W 118°15'713.4
2018-Jul-28 04:00N 31°44' W 118°12'713.4
2018-Jul-28 03:30N 31°50' W 118°09'713.5
2018-Jul-28 03:00N 31°56' W 118°06'713.4
2018-Jul-28 02:30N 32°02' W 118°03'713.5
2018-Jul-28 02:00N 32°09' W 117°60'713.4
2018-Jul-28 01:30N 32°15' W 117°57'612.4
2018-Jul-28 01:00N 32°20' W 117°54'510.6
2018-Jul-28 00:30N 32°25' W 117°52'510.7
2018-Jul-28 00:00N 32°30' W 117°49'  

Dump ship's entire track history